Flight Track Log - Related Links

Times and Time Zones

All times are in EST time to prevent confusion due to time zone crossing. See the FSR411 flight status page for this flight to view local times or setup timezone preferences in your user account.


Time Position Orientation Groundspeed Altitude Reporting Facility
EST Latitude Longitude Course Direction KTS MPH feet Rate Location/Type
Mon 08:23:12 PM 41.8000 -87.7000 212° Southwest 200 230 3,300  Level Chicago TRACON
Mon 08:24:12 PM 41.7500 -87.6833 166° South 216 249 5,800 1,191 Climbing Chicago TRACON
Mon 08:25:23 PM 41.6703 -87.6939 186° South 250 288 5,900 90 Climbing Chicago Center
Mon 08:26:25 PM 41.6261 -87.7533 225° Southwest 250 288 6,000 968 Climbing Chicago Center
Mon 08:27:27 PM 41.5703 -87.8236 223° Southwest 246 283 7,900 2,371 Climbing Chicago Center
Mon 08:28:00 PM 41.4507 -87.9855 212° Southwest  Level FlightAware Approximate
Mon 08:28:29 PM 41.5136 -87.8947 223° Southwest 276 318 10,900  Level Chicago Center
Mon 08:29:31 PM 41.4222 -87.9444 202° Southwest 357 411 11,900 484 Climbing Chicago Center
Mon 08:30:33 PM 41.3153 -87.9661 189° South 390 449 11,900  Level Chicago Center
Mon 08:31:35 PM 41.2031 -87.9944 191° South 384 442 11,900  Level Chicago Center
Mon 08:32:37 PM 41.0972 -88.0206 191° South 385 443 11,900 48 Level Chicago Center
Mon 08:33:39 PM 40.9828 -88.0478 190° South 388 447 12,000 48 Climbing Chicago Center
Mon 08:34:41 PM 40.8781 -88.0744 191° South 384 442 12,000  Level Chicago Center
Mon 08:35:43 PM 40.7664 -88.1019 191° South 380 437 12,000  Level Chicago Center
Mon 08:36:45 PM 40.6581 -88.1272 190° South 380 437 12,000 -480 Level Chicago Center
Mon 08:37:48 PM 40.5672 -88.1486 190° South 337 388 11,000 -1,440 Descending Chicago Center
Mon 08:38:50 PM 40.4858 -88.1703 191° South 303 349 9,000 -2,032 Descending Chicago Center
Mon 08:39:52 PM 40.4103 -88.1989 196° South 289 333 6,800 -2,081 Descending Chicago Center
Mon 08:40:54 PM 40.3400 -88.2317 200° South 278 320 4,700 -1,790 Descending Chicago Center
Mon 08:41:56 PM 40.2694 -88.2653 200° South 268 308 3,100 -1,548 Descending Chicago Center
Mon 08:43:00 PM 40.1870 -88.2333 180° South  Level FlightAware Approximate
Mon 08:50:00 PM 40.0333 -88.2667 194° South  Level FlightAware Approximate

Login

Don't have an account? Register now (free) for customized features, flight alerts, and more!